Time;durP1;ratioP1;P1;durP2;ratioP2;P2;SDS_P1;SDS_P2;PMS_P1;PMS_P2;Temp;Humidity;BMP_temperature;BMP_pressure;BME280_temperature;BME280_humidity;BME280_pressure;Samples;Min_cycle;Max_cycle;Signal;HPM_P1;HPM_P2
2022/05/17 00:01:57;;;;;;;3.42;1.40;;;16.10;82.30;;;;;;5030706;28;20029;-59
2022/05/17 00:04:23;;;;;;;4.22;1.30;;;16.10;82.40;;;;;;5037187;28;20036;-59
2022/05/17 00:06:49;;;;;;;4.43;1.38;;;16.00;82.40;;;;;;5043085;28;20036;-59
2022/05/17 00:09:16;;;;;;;5.75;2.03;;;16.00;82.60;;;;;;5037540;28;20068;-59
2022/05/17 00:11:44;;;;;;;4.85;2.17;;;15.90;83.70;;;;;;5027973;28;20033;-59
2022/05/17 00:14:10;;;;;;;5.32;2.47;;;15.90;83.60;;;;;;5037760;28;20017;-59
2022/05/17 00:16:36;;;;;;;5.18;2.72;;;15.80;84.40;;;;;;5046564;28;20041;-59
2022/05/17 00:19:02;;;;;;;5.22;2.75;;;15.70;85.30;;;;;;5036643;28;20037;-59
2022/05/17 00:21:27;;;;;;;6.68;2.70;;;15.60;85.60;;;;;;5028593;28;20483;-59
2022/05/17 00:23:53;;;;;;;6.18;2.47;;;15.60;86.10;;;;;;5030847;28;20477;-59
2022/05/17 00:26:19;;;;;;;5.88;2.20;;;15.60;86.10;;;;;;5035641;28;20017;-59
2022/05/17 00:28:44;;;;;;;3.78;2.10;;;15.60;86.20;;;;;;5035364;28;20104;-59
2022/05/17 00:31:10;;;;;;;6.75;2.35;;;15.60;86.20;;;;;;5030885;28;20040;-59
2022/05/17 00:33:36;;;;;;;4.43;1.85;;;15.60;86.40;;;;;;5028151;28;20030;-59
2022/05/17 00:36:02;;;;;;;6.63;2.30;;;15.60;86.40;;;;;;5032808;28;20080;-59
2022/05/17 00:38:28;;;;;;;6.07;2.22;;;15.60;86.50;;;;;;5034391;28;20036;-59
2022/05/17 00:40:53;;;;;;;6.35;2.97;;;15.60;86.70;;;;;;5034031;28;20036;-59
2022/05/17 00:46:28;;;;;;;6.47;1.80;;;15.60;87.90;;;;;;5030509;28;20448;-59
2022/05/17 00:48:54;;;;;;;7.25;2.83;;;15.50;88.00;;;;;;5028239;28;20083;-59
2022/05/17 00:51:23;;;;;;;3.47;1.83;;;15.50;88.00;;;;;;5034560;28;20046;-59
2022/05/17 00:53:50;;;;;;;4.68;2.55;;;15.60;88.00;;;;;;5031424;28;20512;-59
2022/05/17 00:56:21;;;;;;;7.10;3.03;;;15.60;88.20;;;;;;5037662;28;20029;-59
2022/05/17 00:58:55;;;;;;;6.90;2.55;;;15.60;88.30;;;;;;5033827;28;20045;-59
2022/05/17 01:01:24;;;;;;;6.57;2.67;;;15.60;88.40;;;;;;5049156;28;20021;-59
2022/05/17 01:03:57;;;;;;;6.00;2.40;;;15.50;88.80;;;;;;5036394;28;20564;-59
2022/05/17 01:06:27;;;;;;;6.65;2.53;;;15.50;89.40;;;;;;5039438;28;21297;-59
2022/05/17 01:08:53;;;;;;;5.80;2.53;;;15.40;90.00;;;;;;5029664;28;20071;-59
2022/05/17 01:11:19;;;;;;;6.05;2.78;;;15.40;90.20;;;;;;5036685;28;20017;-59
2022/05/17 01:16:29;;;;;;;6.55;2.30;;;15.30;90.50;;;;;;5030885;28;20043;-59
2022/05/17 01:18:56;;;;;;;6.00;2.53;;;15.30;90.70;;;;;;5036442;28;20026;-59
2022/05/17 01:21:22;;;;;;;5.95;2.95;;;15.30;90.80;;;;;;5031081;28;20022;-59
2022/05/17 01:23:48;;;;;;;8.07;3.33;;;15.30;91.00;;;;;;5030772;28;20435;-59
2022/05/17 01:26:18;;;;;;;7.45;3.00;;;15.30;91.30;;;;;;5039846;28;20025;-59
2022/05/17 01:28:43;;;;;;;6.43;2.65;;;15.30;91.40;;;;;;5033002;28;20076;-59
2022/05/17 01:31:09;;;;;;;7.20;3.50;;;15.40;91.50;;;;;;5032559;28;20025;-59
2022/05/17 01:33:37;;;;;;;6.82;2.65;;;15.40;91.50;;;;;;5037789;28;20091;-59
2022/05/17 01:36:07;;;;;;;3.60;1.95;;;15.40;91.60;;;;;;5038805;28;20022;-59
2022/05/17 01:38:33;;;;;;;4.93;2.88;;;15.40;91.60;;;;;;5035790;28;20025;-59
2022/05/17 01:40:59;;;;;;;5.10;2.60;;;15.40;91.60;;;;;;5038384;28;20037;-59
2022/05/17 01:43:25;;;;;;;7.68;2.80;;;15.40;91.70;;;;;;5038234;28;20107;-59
2022/05/17 01:45:50;;;;;;;5.85;2.70;;;15.40;91.80;;;;;;5036953;28;20029;-59
2022/05/17 01:48:16;;;;;;;6.95;3.90;;;15.40;91.90;;;;;;5036878;28;20497;-59
2022/05/17 01:50:42;;;;;;;6.35;3.17;;;15.40;92.10;;;;;;5036930;28;20092;-59
2022/05/17 01:53:08;;;;;;;9.88;3.40;;;15.40;92.40;;;;;;5031296;28;20492;-59
2022/05/17 01:55:33;;;;;;;7.20;3.15;;;15.40;92.70;;;;;;5034209;28;20059;-59
2022/05/17 01:57:59;;;;;;;5.57;3.33;;;15.40;92.80;;;;;;5031740;28;20021;-59
2022/05/17 02:00:25;;;;;;;5.10;3.22;;;15.40;92.90;;;;;;5034294;28;20079;-59
2022/05/17 02:02:51;;;;;;;5.82;3.25;;;15.40;93.10;;;;;;5040180;28;20528;-59
2022/05/17 02:05:22;;;;;;;6.22;3.15;;;15.40;93.20;;;;;;5037135;28;20493;-59
2022/05/17 02:07:51;;;;;;;9.43;3.65;;;15.40;93.40;;;;;;5036524;28;20064;-59
2022/05/17 02:10:19;;;;;;;6.93;4.00;;;15.40;93.70;;;;;;5033894;28;20019;-59
2022/05/17 02:12:44;;;;;;;9.15;3.83;;;15.30;93.80;;;;;;5038837;28;20033;-59
2022/05/17 02:15:11;;;;;;;6.28;3.03;;;15.40;94.00;;;;;;5033714;28;20037;-59
2022/05/17 02:17:37;;;;;;;5.00;2.85;;;15.40;94.00;;;;;;5033997;28;20033;-59
2022/05/17 02:20:05;;;;;;;6.20;2.63;;;15.40;94.00;;;;;;5033624;28;20100;-59
2022/05/17 02:22:30;;;;;;;5.72;3.05;;;15.40;93.90;;;;;;5033610;28;20033;-59
2022/05/17 02:24:56;;;;;;;5.55;3.10;;;15.40;93.90;;;;;;5038796;28;20468;-59
2022/05/17 02:27:22;;;;;;;6.35;3.13;;;15.50;93.80;;;;;;5033592;28;20021;-59
2022/05/17 02:29:47;;;;;;;5.00;2.40;;;15.50;93.80;;;;;;5031942;28;20030;-59
2022/05/17 02:32:14;;;;;;;4.25;2.53;;;15.50;93.70;;;;;;5034578;28;20401;-59
2022/05/17 02:34:40;;;;;;;5.30;2.75;;;15.50;93.60;;;;;;5034471;28;20029;-59
2022/05/17 02:37:06;;;;;;;6.32;2.67;;;15.50;93.60;;;;;;5040608;28;20024;-59
2022/05/17 02:39:31;;;;;;;4.20;2.70;;;15.50;93.50;;;;;;5035923;28;20163;-59
2022/05/17 02:41:57;;;;;;;5.88;3.10;;;15.60;93.50;;;;;;5038556;28;20469;-59
2022/05/17 02:44:23;;;;;;;5.00;2.80;;;15.60;93.40;;;;;;5028979;28;20533;-59
2022/05/17 02:46:49;;;;;;;7.03;3.03;;;15.60;93.30;;;;;;5032767;28;20021;-58
2022/05/17 02:49:14;;;;;;;4.85;3.00;;;15.60;93.40;;;;;;5033126;28;20112;-59
2022/05/17 02:51:40;;;;;;;8.05;3.45;;;15.60;93.40;;;;;;5029993;28;20056;-59
2022/05/17 02:54:07;;;;;;;5.10;2.30;;;15.60;93.40;;;;;;5032974;28;20061;-59
2022/05/17 02:56:33;;;;;;;4.68;2.90;;;15.60;93.30;;;;;;5035290;28;20108;-59
2022/05/17 02:58:59;;;;;;;4.97;2.80;;;15.60;93.20;;;;;;5031387;28;20017;-59
2022/05/17 03:01:25;;;;;;;8.00;3.20;;;15.60;93.10;;;;;;5035537;28;20032;-59
2022/05/17 03:03:50;;;;;;;7.68;3.50;;;15.60;93.10;;;;;;5035193;28;20017;-59
2022/05/17 03:06:16;;;;;;;10.10;3.78;;;15.60;93.10;;;;;;5038074;28;20025;-59
2022/05/17 03:08:41;;;;;;;5.45;3.10;;;15.60;93.10;;;;;;5036144;28;20029;-59
2022/05/17 03:11:07;;;;;;;3.45;2.20;;;15.60;93.10;;;;;;5032425;28;20044;-59
2022/05/17 03:13:33;;;;;;;7.15;2.72;;;15.70;93.00;;;;;;5031335;28;20034;-59
2022/05/17 03:15:59;;;;;;;5.47;2.70;;;15.70;93.00;;;;;;5035218;28;20075;-59
2022/05/17 03:18:25;;;;;;;6.72;3.28;;;15.70;92.90;;;;;;5032510;28;20034;-59
2022/05/17 03:20:50;;;;;;;5.45;3.25;;;15.60;92.90;;;;;;5037601;28;20034;-59
2022/05/17 03:23:16;;;;;;;6.72;3.50;;;15.60;92.90;;;;;;5050387;28;20053;-59
2022/05/17 03:25:42;;;;;;;5.80;3.53;;;15.60;93.00;;;;;;5037336;28;20638;-59
2022/05/17 03:28:11;;;;;;;5.85;2.88;;;15.60;93.10;;;;;;5040641;28;20029;-59
2022/05/17 03:30:37;;;;;;;4.88;3.13;;;15.60;93.10;;;;;;5040639;28;20108;-59
2022/05/17 03:33:02;;;;;;;6.50;3.33;;;15.50;93.20;;;;;;5029768;28;20025;-59
2022/05/17 03:35:28;;;;;;;5.38;2.67;;;15.50;93.20;;;;;;5034303;28;20102;-59
2022/05/17 03:37:53;;;;;;;7.00;3.75;;;15.60;93.20;;;;;;5034375;28;20389;-60
2022/05/17 03:40:19;;;;;;;5.78;3.35;;;15.60;93.20;;;;;;5029992;28;20041;-59
2022/05/17 03:42:45;;;;;;;3.90;3.08;;;15.60;93.20;;;;;;5032359;28;20150;-59
2022/05/17 03:45:11;;;;;;;6.88;2.83;;;15.60;93.30;;;;;;5042785;28;20397;-59
2022/05/17 03:47:38;;;;;;;3.88;2.33;;;15.60;93.20;;;;;;5034745;28;20356;-59
2022/05/17 03:50:05;;;;;;;3.67;2.50;;;15.50;93.10;;;;;;5040001;28;20028;-59
2022/05/17 03:52:31;;;;;;;3.20;2.30;;;15.60;93.10;;;;;;5030965;28;20481;-60
2022/05/17 03:54:58;;;;;;;5.82;3.20;;;15.60;93.00;;;;;;5029058;28;20022;-59
2022/05/17 03:57:25;;;;;;;6.38;3.38;;;15.60;92.90;;;;;;5034718;28;20158;-60
2022/05/17 03:59:51;;;;;;;8.10;3.47;;;15.70;93.00;;;;;;5037503;28;20032;-59
2022/05/17 04:02:17;;;;;;;5.90;3.08;;;15.60;93.00;;;;;;5029015;28;20033;-59
2022/05/17 04:04:43;;;;;;;5.55;3.47;;;15.60;93.00;;;;;;5041193;28;20099;-60
2022/05/17 04:07:09;;;;;;;9.10;4.15;;;15.60;93.00;;;;;;5030842;28;20029;-59
2022/05/17 04:09:34;;;;;;;7.30;3.72;;;15.60;93.00;;;;;;5029042;28;20044;-59
2022/05/17 04:12:00;;;;;;;7.90;3.42;;;15.60;93.10;;;;;;5028902;28;20026;-59
2022/05/17 04:14:25;;;;;;;8.35;3.53;;;15.60;93.10;;;;;;5038828;28;20026;-59
2022/05/17 04:16:51;;;;;;;7.80;3.58;;;15.60;93.10;;;;;;5031584;28;20506;-59
2022/05/17 04:19:17;;;;;;;8.80;3.78;;;15.70;93.20;;;;;;5051204;28;20025;-60
2022/05/17 04:21:43;;;;;;;5.97;3.10;;;15.70;93.20;;;;;;5029682;28;20033;-59
2022/05/17 04:24:10;;;;;;;7.03;3.67;;;15.70;93.20;;;;;;5030436;28;20168;-59
2022/05/17 04:26:36;;;;;;;7.15;3.47;;;15.70;93.20;;;;;;5033613;28;20033;-59
2022/05/17 04:29:03;;;;;;;4.70;2.92;;;15.70;93.20;;;;;;5031622;28;20022;-59
2022/05/17 04:31:29;;;;;;;4.38;2.53;;;15.80;93.10;;;;;;5031317;28;20056;-59
2022/05/17 04:33:55;;;;;;;4.53;2.45;;;15.80;93.00;;;;;;5031625;28;20055;-60
2022/05/17 04:36:21;;;;;;;3.88;2.28;;;15.80;92.90;;;;;;5033342;28;20452;-59
2022/05/17 04:38:47;;;;;;;4.63;2.38;;;15.90;92.90;;;;;;5032927;28;20026;-59
2022/05/17 04:41:12;;;;;;;3.30;2.38;;;15.90;92.80;;;;;;5037721;28;20029;-59
2022/05/17 04:43:38;;;;;;;3.83;2.40;;;15.90;92.80;;;;;;5035685;28;20020;-59
2022/05/17 04:46:04;;;;;;;3.75;2.40;;;16.00;92.80;;;;;;5031282;28;20021;-59
2022/05/17 04:48:29;;;;;;;4.90;2.40;;;16.00;92.80;;;;;;5027385;28;20025;-59
2022/05/17 04:50:55;;;;;;;3.35;2.22;;;16.00;92.70;;;;;;5051664;28;20048;-59
2022/05/17 04:53:20;;;;;;;6.13;2.60;;;16.00;92.70;;;;;;5039372;28;20470;-59
2022/05/17 04:55:46;;;;;;;6.35;2.67;;;16.00;92.70;;;;;;5039515;28;20377;-59
2022/05/17 04:58:12;;;;;;;5.88;2.72;;;16.10;92.70;;;;;;5042965;28;20115;-59
2022/05/17 05:00:38;;;;;;;5.75;2.60;;;16.10;92.70;;;;;;5041070;28;20061;-59
2022/05/17 05:03:03;;;;;;;9.13;3.00;;;16.10;92.70;;;;;;5031562;28;20031;-59
2022/05/17 05:05:30;;;;;;;4.55;2.55;;;16.10;92.70;;;;;;5034175;28;20061;-59
2022/05/17 05:07:55;;;;;;;6.22;2.92;;;16.20;92.70;;;;;;5048235;28;20029;-59
2022/05/17 05:10:22;;;;;;;5.93;2.60;;;16.20;92.70;;;;;;5037687;28;20087;-59
2022/05/17 05:12:48;;;;;;;5.55;2.80;;;16.20;92.70;;;;;;5035747;28;20029;-59
2022/05/17 05:15:14;;;;;;;5.68;2.75;;;16.20;92.70;;;;;;5035441;28;20030;-59
2022/05/17 05:17:40;;;;;;;3.72;2.50;;;16.30;92.90;;;;;;5036038;28;20025;-59
2022/05/17 05:20:10;;;;;;;4.50;2.50;;;16.30;92.80;;;;;;5035766;28;20056;-60
2022/05/17 05:22:36;;;;;;;5.55;3.00;;;16.40;92.80;;;;;;5036134;28;20405;-59
2022/05/17 05:25:02;;;;;;;4.85;2.65;;;16.40;92.80;;;;;;5035482;28;20116;-60
2022/05/17 05:27:35;;;;;;;4.25;2.75;;;16.40;92.80;;;;;;5035836;28;20109;-59
2022/05/17 05:30:02;;;;;;;6.30;2.78;;;16.50;92.90;;;;;;5035709;28;20477;-59
2022/05/17 05:32:28;;;;;;;5.55;3.10;;;16.50;92.90;;;;;;5035698;28;20026;-59
2022/05/17 05:34:53;;;;;;;4.15;2.50;;;16.50;92.90;;;;;;5035844;28;20083;-59
2022/05/17 05:37:19;;;;;;;6.90;2.70;;;16.60;92.90;;;;;;5055539;28;20511;-59
2022/05/17 05:39:44;;;;;;;6.30;2.97;;;16.60;92.90;;;;;;5055384;28;20489;-59
2022/05/17 05:42:10;;;;;;;7.10;3.20;;;16.70;92.90;;;;;;5055437;28;20032;-59
2022/05/17 05:44:36;;;;;;;7.25;3.75;;;16.70;92.80;;;;;;5045579;28;20171;-59
2022/05/17 05:47:02;;;;;;;4.43;3.25;;;16.80;92.80;;;;;;5044868;28;20040;-60
2022/05/17 05:49:28;;;;;;;4.90;3.10;;;16.70;92.80;;;;;;5055136;28;20025;-59
2022/05/17 05:51:53;;;;;;;6.43;3.30;;;16.80;93.00;;;;;;5054851;28;20055;-59
2022/05/17 05:54:19;;;;;;;5.85;3.88;;;16.80;93.10;;;;;;5055000;28;20504;-59
2022/05/17 05:56:44;;;;;;;3.85;2.83;;;16.90;93.20;;;;;;5054031;28;20037;-59
2022/05/17 05:59:10;;;;;;;6.25;3.25;;;16.90;93.20;;;;;;5055081;28;20477;-59
2022/05/17 06:01:36;;;;;;;6.13;3.50;;;17.00;93.20;;;;;;5053773;28;20033;-59
2022/05/17 06:04:03;;;;;;;4.18;3.28;;;17.10;93.10;;;;;;5054886;28;20029;-59
2022/05/17 06:06:28;;;;;;;9.68;5.03;;;17.20;93.00;;;;;;5054949;28;20033;-59
2022/05/17 06:08:55;;;;;;;6.30;4.82;;;17.30;92.80;;;;;;5054103;28;20378;-59
2022/05/17 06:11:21;;;;;;;8.32;5.35;;;17.30;92.70;;;;;;5054297;28;20327;-59
2022/05/17 06:13:47;;;;;;;7.68;5.55;;;17.40;92.60;;;;;;5048946;28;20481;-59
2022/05/17 06:16:12;;;;;;;7.45;4.38;;;17.40;92.50;;;;;;5034163;28;20025;-59
2022/05/17 06:18:38;;;;;;;7.05;4.78;;;17.50;92.40;;;;;;5038827;28;20047;-59
2022/05/17 06:21:04;;;;;;;6.07;4.10;;;17.60;92.30;;;;;;5050022;28;20025;-59
2022/05/17 06:23:31;;;;;;;5.22;3.88;;;17.60;92.10;;;;;;5042538;28;20075;-60
2022/05/17 06:25:57;;;;;;;6.55;4.45;;;17.70;92.00;;;;;;5043188;28;20111;-60
2022/05/17 06:28:23;;;;;;;7.22;4.30;;;17.80;91.90;;;;;;5052282;28;20100;-60
2022/05/17 06:30:48;;;;;;;6.65;4.13;;;17.90;91.70;;;;;;5053520;28;20017;-59
2022/05/17 06:33:15;;;;;;;8.68;4.45;;;17.90;91.60;;;;;;5054085;28;20044;-59
2022/05/17 06:35:45;;;;;;;5.38;4.18;;;18.00;91.40;;;;;;5053584;28;20052;-60
2022/05/17 06:38:11;;;;;;;5.25;3.85;;;18.10;91.30;;;;;;5048288;28;20017;-60
2022/05/17 06:40:37;;;;;;;8.85;4.53;;;18.10;91.20;;;;;;5048427;28;20178;-60
2022/05/17 06:43:03;;;;;;;9.32;5.78;;;18.10;91.10;;;;;;5046839;28;20018;-60
2022/05/17 06:45:29;;;;;;;9.80;4.57;;;18.10;91.10;;;;;;5052394;28;20021;-60
2022/05/17 06:47:54;;;;;;;7.80;4.80;;;18.10;91.00;;;;;;5047110;28;20039;-60
2022/05/17 06:50:20;;;;;;;8.63;4.70;;;18.20;91.00;;;;;;5048755;28;20025;-60
2022/05/17 06:52:46;;;;;;;7.20;3.90;;;18.20;91.00;;;;;;5048418;28;20037;-60
2022/05/17 06:55:12;;;;;;;6.50;4.70;;;18.20;90.90;;;;;;5045797;28;20033;-60
2022/05/17 06:57:40;;;;;;;5.47;4.18;;;18.30;90.80;;;;;;5049187;28;20029;-60
2022/05/17 07:00:08;;;;;;;8.40;3.85;;;18.30;90.70;;;;;;5051072;28;20021;-60
2022/05/17 07:02:33;;;;;;;7.55;4.07;;;18.40;90.70;;;;;;5048529;28;20025;-60
2022/05/17 07:04:59;;;;;;;6.80;4.15;;;18.40;90.60;;;;;;5046109;28;20086;-60
2022/05/17 07:07:26;;;;;;;6.65;4.13;;;18.40;90.50;;;;;;5050915;28;20056;-60
2022/05/17 07:15:20;;;;;;;8.77;4.72;;;18.60;90.10;;;;;;5047724;28;20036;-60
2022/05/17 07:17:45;;;;;;;5.30;4.63;;;18.70;89.90;;;;;;5039132;28;20041;-59
2022/05/17 07:20:11;;;;;;;8.57;4.53;;;18.80;89.60;;;;;;5033717;28;20033;-60
2022/05/17 07:22:37;;;;;;;8.00;4.68;;;18.80;89.30;;;;;;5034307;28;20034;-60
2022/05/17 07:25:03;;;;;;;8.00;4.78;;;18.90;88.90;;;;;;5048801;28;20036;-60
2022/05/17 07:27:29;;;;;;;6.82;4.05;;;19.00;88.50;;;;;;5047610;28;20082;-60
2022/05/17 07:29:54;;;;;;;7.45;4.60;;;19.00;88.40;;;;;;5051500;28;20017;-60
2022/05/17 07:32:20;;;;;;;5.65;4.18;;;19.10;88.30;;;;;;5034093;28;20477;-60
2022/05/17 07:34:47;;;;;;;6.50;3.70;;;19.20;88.20;;;;;;5048920;28;20051;-60
2022/05/17 07:37:13;;;;;;;8.13;3.45;;;19.20;87.90;;;;;;5048811;28;20032;-60
2022/05/17 07:39:39;;;;;;;6.57;4.88;;;19.20;87.60;;;;;;5051853;28;20412;-60
2022/05/17 07:42:06;;;;;;;5.45;3.45;;;19.30;87.50;;;;;;5055388;28;20387;-60
2022/05/17 07:44:32;;;;;;;5.57;3.78;;;19.30;87.20;;;;;;5071848;28;20023;-60
2022/05/17 07:46:58;;;;;;;7.13;3.50;;;19.30;87.00;;;;;;5073147;28;20048;-59
2022/05/17 07:49:23;;;;;;;6.57;3.15;;;19.30;86.60;;;;;;5072991;28;20484;-59
2022/05/17 07:51:49;;;;;;;6.30;3.35;;;19.40;86.40;;;;;;5072805;28;20060;-59
2022/05/17 07:54:14;;;;;;;7.40;3.92;;;19.40;86.20;;;;;;5072717;28;20024;-59
2022/05/17 07:56:41;;;;;;;7.75;4.30;;;19.30;86.00;;;;;;5072914;28;20061;-60
2022/05/17 07:59:06;;;;;;;11.27;6.03;;;19.30;85.80;;;;;;5053182;28;20043;-59
2022/05/17 08:01:32;;;;;;;8.75;4.53;;;19.30;85.50;;;;;;5052294;28;20380;-59
2022/05/17 08:03:58;;;;;;;11.68;5.45;;;19.20;85.60;;;;;;5052634;28;20029;-59
2022/05/17 08:06:24;;;;;;;5.50;4.25;;;19.20;85.60;;;;;;5051386;28;20033;-59
2022/05/17 08:08:49;;;;;;;8.25;3.95;;;19.20;85.80;;;;;;5052597;28;20036;-60
2022/05/17 08:11:15;;;;;;;8.45;4.28;;;19.30;86.00;;;;;;5052700;28;20056;-59
2022/05/17 08:13:41;;;;;;;9.15;5.10;;;19.20;85.80;;;;;;5051284;28;20040;-59
2022/05/17 08:16:06;;;;;;;11.38;4.72;;;19.20;85.30;;;;;;5052529;28;20033;-60
2022/05/17 08:18:32;;;;;;;8.30;4.75;;;19.30;85.30;;;;;;5052638;28;20036;-59
2022/05/17 08:20:57;;;;;;;11.15;4.95;;;19.30;85.40;;;;;;5052516;28;20040;-59
2022/05/17 08:23:23;;;;;;;8.63;4.70;;;19.30;85.60;;;;;;5052462;28;20034;-59
2022/05/17 08:28:32;;;;;;;10.48;4.57;;;19.50;84.00;;;;;;5052693;28;20442;-59
2022/05/17 08:30:58;;;;;;;8.80;4.22;;;19.50;83.90;;;;;;5043929;28;20017;-59
2022/05/17 08:33:24;;;;;;;12.60;5.30;;;19.60;83.30;;;;;;5047642;28;20516;-60
2022/05/17 08:35:54;;;;;;;13.60;5.40;;;19.70;82.30;;;;;;5046289;28;20090;-59
2022/05/17 08:38:23;;;;;;;5.75;3.95;;;19.80;81.50;;;;;;5052629;28;20144;-60
2022/05/17 08:41:00;;;;;;;10.80;5.40;;;19.90;81.20;;;;;;5049172;28;20018;-60
2022/05/17 08:43:49;;;;;;;9.68;6.13;;;19.90;81.30;;;;;;5054592;28;20025;-60
2022/05/17 08:46:22;;;;;;;10.57;6.65;;;19.90;81.80;;;;;;5054977;28;20045;-59
2022/05/17 08:49:22;;;;;;;11.13;5.68;;;19.80;82.20;;;;;;5050818;28;20470;-59
2022/05/17 08:52:07;;;;;;;11.40;6.63;;;19.90;82.30;;;;;;5036264;28;20501;-60
2022/05/17 08:54:49;;;;;;;10.65;6.50;;;20.00;82.30;;;;;;5036278;28;20563;-59
2022/05/17 08:57:30;;;;;;;14.10;7.38;;;20.00;81.70;;;;;;5051480;28;20056;-60
2022/05/17 08:59:59;;;;;;;11.15;6.45;;;20.00;81.00;;;;;;5036225;28;20105;-60
2022/05/17 09:02:52;;;;;;;10.13;5.65;;;20.00;80.20;;;;;;5035629;28;20512;-60
2022/05/17 09:05:21;;;;;;;9.93;5.65;;;20.10;79.30;;;;;;5051441;28;20477;-60
2022/05/17 09:08:09;;;;;;;11.25;4.10;;;20.00;77.30;;;;;;5048123;28;20492;-60
2022/05/17 09:10:41;;;;;;;6.72;3.25;;;20.00;76.30;;;;;;5054734;28;20473;-60
2022/05/17 09:13:23;;;;;;;12.25;5.45;;;20.10;76.50;;;;;;5055896;28;20025;-60
2022/05/17 09:15:51;;;;;;;11.95;5.45;;;20.20;75.80;;;;;;5055867;28;20025;-60
2022/05/17 09:18:19;;;;;;;6.05;5.22;;;20.20;76.40;;;;;;5055784;28;20049;-60
2022/05/17 09:20:45;;;;;;;11.63;5.03;;;20.20;77.20;;;;;;5056067;28;20061;-60
2022/05/17 09:23:11;;;;;;;10.63;5.15;;;20.30;78.20;;;;;;5055532;28;20063;-59
2022/05/17 09:25:58;;;;;;;12.20;6.95;;;20.40;77.60;;;;;;5054294;28;20028;-60
2022/05/17 09:28:27;;;;;;;12.93;6.63;;;20.40;78.90;;;;;;5055472;28;20025;-60
2022/05/17 09:31:08;;;;;;;10.43;7.03;;;20.40;78.20;;;;;;5054206;28;20090;-60
2022/05/17 09:33:34;;;;;;;14.23;6.78;;;20.50;77.90;;;;;;5055463;28;20029;-59
2022/05/17 09:36:01;;;;;;;11.18;6.70;;;20.60;78.70;;;;;;5055358;28;20099;-60
2022/05/17 09:38:35;;;;;;;11.00;6.55;;;20.60;77.90;;;;;;5055351;28;20031;-60
2022/05/17 09:41:05;;;;;;;11.93;5.90;;;20.80;77.40;;;;;;5054045;28;20035;-59
2022/05/17 09:43:44;;;;;;;10.80;7.13;;;20.70;76.20;;;;;;5055373;28;20021;-59
2022/05/17 09:46:11;;;;;;;;;;;20.70;75.80;;;;;;5055663;28;20063;-60
2022/05/17 09:54:45;;;;;;;7.05;5.15;;;21.00;75.30;;;;;;5055385;28;20102;-59
2022/05/17 09:57:17;;;;;;;8.60;5.00;;;21.40;74.90;;;;;;5053579;28;20028;-59
2022/05/17 09:59:44;;;;;;;10.93;5.13;;;21.50;73.70;;;;;;5054988;28;20396;-59
2022/05/17 10:02:37;;;;;;;6.00;3.35;;;21.60;72.60;;;;;;5052417;28;20079;-60
2022/05/17 10:05:25;;;;;;;9.30;5.32;;;21.90;72.70;;;;;;5053166;28;20118;-59
2022/05/17 10:08:04;;;;;;;6.63;4.00;;;22.10;70.40;;;;;;5052686;28;20028;-59
2022/05/17 10:10:37;;;;;;;8.82;4.10;;;22.10;70.80;;;;;;5054747;28;20021;-60
2022/05/17 10:13:17;;;;;;;7.20;3.45;;;22.20;71.70;;;;;;5054997;28;20025;-60
2022/05/17 10:15:47;;;;;;;10.35;3.85;;;22.60;71.80;;;;;;5054578;28;20021;-60
2022/05/17 10:18:29;;;;;;;8.68;4.78;;;22.80;70.40;;;;;;5053371;28;20550;-60
2022/05/17 10:21:02;;;;;;;8.00;3.70;;;23.00;70.30;;;;;;5054573;28;20025;-60
2022/05/17 10:23:43;;;;;;;9.38;5.18;;;23.30;69.60;;;;;;5053355;28;20072;-60
2022/05/17 10:26:21;;;;;;;9.30;4.63;;;23.40;68.90;;;;;;5054441;28;20045;-60
2022/05/17 10:29:00;;;;;;;8.70;5.85;;;23.60;67.70;;;;;;5054094;28;20121;-60
2022/05/17 10:31:43;;;;;;;10.07;5.93;;;23.60;66.10;;;;;;5052696;28;20013;-60
2022/05/17 10:34:51;;;;;;;3.90;2.70;;;23.50;65.80;;;;;;5051314;28;20032;-60
2022/05/17 10:37:25;;;;;;;10.55;4.95;;;23.80;66.60;;;;;;5048834;28;20028;-60
2022/05/17 10:40:21;;;;;;;10.18;5.03;;;24.00;64.40;;;;;;5051481;28;20024;-60
2022/05/17 10:42:47;;;;;;;9.00;5.53;;;24.10;64.30;;;;;;5031666;28;20041;-60
2022/05/17 10:45:20;;;;;;;7.38;4.40;;;23.90;65.20;;;;;;5032453;28;20030;-60
2022/05/17 10:48:00;;;;;;;7.78;5.85;;;23.80;65.10;;;;;;5037688;28;20017;-61
2022/05/17 10:50:57;;;;;;;8.25;5.00;;;23.70;63.80;;;;;;5050900;28;20021;-60
2022/05/17 10:53:31;;;;;;;5.07;3.47;;;23.70;63.70;;;;;;5049364;28;20029;-60
2022/05/17 10:56:06;;;;;;;9.18;5.40;;;23.70;64.00;;;;;;5054134;28;20067;-60
2022/05/17 10:58:53;;;;;;;10.77;5.20;;;23.70;64.90;;;;;;5053975;28;20017;-60
2022/05/17 11:01:33;;;;;;;8.98;4.70;;;23.50;64.30;;;;;;5053404;28;20070;-60
2022/05/17 11:04:25;;;;;;;11.48;5.53;;;23.40;64.10;;;;;;5049487;28;20032;-60
2022/05/17 11:06:54;;;;;;;8.43;5.80;;;23.40;64.30;;;;;;5051577;28;20052;-60
2022/05/17 11:09:44;;;;;;;7.55;4.75;;;23.30;64.90;;;;;;5046306;28;20092;-60
2022/05/17 11:12:13;;;;;;;9.13;5.13;;;23.30;64.50;;;;;;5053555;28;20059;-60
2022/05/17 11:14:53;;;;;;;9.00;4.53;;;23.00;64.40;;;;;;5053515;28;20536;-60
2022/05/17 11:17:37;;;;;;;8.40;4.60;;;22.90;65.60;;;;;;5032560;28;20033;-60
2022/05/17 11:20:23;;;;;;;7.40;3.63;;;22.80;64.60;;;;;;5041340;28;20040;-60
2022/05/17 11:23:26;;;;;;;9.35;3.90;;;22.80;65.00;;;;;;5049412;28;20106;-60
2022/05/17 11:26:17;;;;;;;10.13;4.30;;;22.80;65.40;;;;;;5043452;28;20029;-60
2022/05/17 11:29:31;;;;;;;7.45;3.58;;;23.00;65.60;;;;;;5031688;28;20033;-60
2022/05/17 11:32:16;;;;;;;6.22;3.10;;;23.10;65.00;;;;;;4995990;28;20074;-60
2022/05/17 11:34:45;;;;;;;6.93;3.58;;;23.30;65.00;;;;;;5031717;28;20053;-61
2022/05/17 11:37:33;;;;;;;6.60;3.50;;;23.50;65.30;;;;;;5052399;28;20028;-60
2022/05/17 11:40:07;;;;;;;7.22;4.05;;;23.70;63.50;;;;;;5052395;28;20028;-60
2022/05/17 11:45:51;;;;;;;6.97;3.42;;;23.80;64.00;;;;;;5053253;28;20078;-60
2022/05/17 11:48:42;;;;;;;3.67;1.92;;;23.80;64.10;;;;;;5053002;28;20100;-60
2022/05/17 11:51:07;;;;;;;7.32;2.88;;;24.30;64.20;;;;;;5052526;28;20056;-60
2022/05/17 11:53:42;;;;;;;6.47;3.80;;;24.70;62.20;;;;;;5053030;28;20086;-60
2022/05/17 11:56:13;;;;;;;9.20;3.85;;;24.70;62.00;;;;;;5052599;28;20036;-60
2022/05/17 11:58:40;;;;;;;7.47;4.05;;;24.70;61.70;;;;;;5052523;28;20035;-60
2022/05/17 12:01:31;;;;;;;7.35;3.80;;;24.50;62.00;;;;;;5052247;28;20122;-60
2022/05/17 12:04:07;;;;;;;7.85;3.90;;;24.60;61.60;;;;;;5051379;28;20029;-61
2022/05/17 12:06:38;;;;;;;5.90;3.05;;;24.40;63.50;;;;;;5052653;28;20046;-61
2022/05/17 12:09:27;;;;;;;7.55;3.60;;;24.40;63.40;;;;;;5050992;28;20078;-62
2022/05/17 12:12:16;;;;;;;5.72;3.10;;;24.60;62.80;;;;;;5048559;28;20033;-60
2022/05/17 12:15:18;;;;;;;5.55;2.50;;;24.50;62.60;;;;;;5052492;28;20032;-60
2022/05/17 12:17:44;;;;;;;7.18;3.13;;;24.70;61.80;;;;;;5051335;28;20053;-60
2022/05/17 12:20:19;;;;;;;7.57;2.88;;;24.90;61.40;;;;;;5052595;28;20056;-61
2022/05/17 12:23:14;;;;;;;8.45;3.08;;;25.10;61.10;;;;;;5051414;28;20087;-61
2022/05/17 12:25:47;;;;;;;6.07;3.30;;;25.40;60.00;;;;;;5052475;28;20029;-61
2022/05/17 12:28:21;;;;;;;9.65;3.70;;;25.20;60.70;;;;;;5052635;28;20095;-60
2022/05/17 12:30:59;;;;;;;7.15;3.65;;;25.20;60.90;;;;;;5052504;28;20378;-61
2022/05/17 12:33:40;;;;;;;5.95;2.05;;;25.10;60.40;;;;;;5050866;28;20083;-61
2022/05/17 12:36:13;;;;;;;5.40;2.58;;;25.20;60.60;;;;;;5051081;28;20029;-60
2022/05/17 12:44:16;;;;;;;6.15;3.15;;;25.60;59.10;;;;;;5052514;28;20557;-61
2022/05/17 12:46:45;;;;;;;5.88;3.25;;;25.50;59.50;;;;;;5052370;28;20025;-60
2022/05/17 12:49:23;;;;;;;6.28;2.50;;;25.40;58.90;;;;;;5052194;28;20033;-60
2022/05/17 12:52:08;;;;;;;8.00;3.03;;;25.50;60.20;;;;;;5052263;28;20045;-60
2022/05/17 12:54:34;;;;;;;9.07;4.20;;;25.90;59.30;;;;;;5052319;28;20484;-60
2022/05/17 12:57:14;;;;;;;5.90;2.78;;;25.90;59.40;;;;;;5052160;28;20033;-61
2022/05/17 12:59:39;;;;;;;8.13;3.70;;;25.90;59.40;;;;;;5052450;28;20507;-61
2022/05/17 13:02:05;;;;;;;8.40;2.63;;;26.00;59.60;;;;;;5052087;28;20041;-60
2022/05/17 13:04:33;;;;;;;4.95;2.17;;;26.00;60.60;;;;;;5050250;28;20103;-61
2022/05/17 13:07:13;;;;;;;5.63;3.30;;;26.30;59.60;;;;;;5047133;28;20032;-60
2022/05/17 13:10:04;;;;;;;6.47;3.58;;;26.40;58.30;;;;;;5051429;28;20032;-60
2022/05/17 13:12:33;;;;;;;7.43;3.88;;;26.20;58.30;;;;;;5051431;28;20033;-61
2022/05/17 13:15:03;;;;;;;9.70;3.30;;;26.20;58.00;;;;;;5051852;28;20028;-61
2022/05/17 13:17:34;;;;;;;6.28;3.30;;;26.20;58.30;;;;;;5052115;28;20515;-61
2022/05/17 13:20:19;;;;;;;6.95;3.70;;;26.40;57.50;;;;;;5051939;28;20031;-61
2022/05/17 13:22:46;;;;;;;7.72;3.95;;;26.50;57.10;;;;;;5052144;28;20025;-61
2022/05/17 13:25:21;;;;;;;5.47;2.95;;;26.50;57.60;;;;;;5055206;28;20114;-61
2022/05/17 13:27:53;;;;;;;5.47;2.88;;;26.50;57.50;;;;;;5055670;28;20065;-61
2022/05/17 13:30:24;;;;;;;7.75;2.78;;;26.70;57.60;;;;;;5055605;28;20032;-61